Time;durP1;ratioP1;P1;durP2;ratioP2;P2;SDS_P1;SDS_P2;PMS_P1;PMS_P2;Temp;Humidity;BMP_temperature;BMP_pressure;BME280_temperature;BME280_humidity;BME280_pressure;Samples;Min_cycle;Max_cycle;Signal;HPM_P1;HPM_P2
2023/07/05 00:00:38;;;;;;;11.18;4.13;;;14.90;99.90;;;;;;5080014;28;20719;-63
2023/07/05 00:03:04;;;;;;;10.18;3.35;;;14.80;99.90;;;;;;5080961;28;20041;-64
2023/07/05 00:05:29;;;;;;;10.93;3.95;;;14.80;99.90;;;;;;5078192;28;20049;-63
2023/07/05 00:07:56;;;;;;;9.63;3.95;;;14.80;99.90;;;;;;5080530;28;20127;-62
2023/07/05 00:10:22;;;;;;;9.50;3.72;;;14.70;99.90;;;;;;5079567;28;20045;-61
2023/07/05 00:12:48;;;;;;;9.18;4.40;;;14.70;99.90;;;;;;5080706;28;20497;-60
2023/07/05 00:15:13;;;;;;;10.77;3.90;;;14.70;99.90;;;;;;5078822;28;20047;-60
2023/07/05 00:17:39;;;;;;;11.55;4.25;;;14.70;99.90;;;;;;5079951;28;20040;-60
2023/07/05 00:20:06;;;;;;;11.30;4.20;;;14.80;99.90;;;;;;5080504;28;20399;-59
2023/07/05 00:22:32;;;;;;;12.43;4.18;;;14.80;99.90;;;;;;5077260;28;20043;-59
2023/07/05 00:25:02;;;;;;;10.70;4.35;;;14.80;99.90;;;;;;5079645;28;20481;-59
2023/07/05 00:27:28;;;;;;;9.65;3.95;;;14.70;99.90;;;;;;5079262;28;20098;-59
2023/07/05 00:29:53;;;;;;;9.77;4.35;;;14.70;99.90;;;;;;5080231;28;20049;-59
2023/07/05 00:32:20;;;;;;;11.20;4.80;;;14.70;99.90;;;;;;5080118;28;20128;-58
2023/07/05 00:34:46;;;;;;;11.63;4.30;;;14.70;99.90;;;;;;5079135;28;20048;-58
2023/07/05 00:37:12;;;;;;;10.48;4.43;;;14.70;99.90;;;;;;5079690;28;20424;-59
2023/07/05 00:39:37;;;;;;;9.15;4.43;;;14.60;99.90;;;;;;5078651;28;20474;-58
2023/07/05 00:42:04;;;;;;;10.07;4.10;;;14.60;99.90;;;;;;5080307;28;20048;-59
2023/07/05 00:44:30;;;;;;;11.63;4.70;;;14.60;99.90;;;;;;5078639;28;20043;-56
2023/07/05 00:47:23;;;;;;;8.48;4.28;;;14.50;99.90;;;;;;5079622;28;20045;-59
2023/07/05 00:49:49;;;;;;;11.85;4.50;;;14.60;99.90;;;;;;5079654;28;20053;-59
2023/07/05 00:52:17;;;;;;;9.55;4.55;;;14.60;99.90;;;;;;5078802;28;20036;-61
2023/07/05 00:54:48;;;;;;;10.32;4.70;;;14.50;99.90;;;;;;5079750;28;20487;-61
2023/07/05 00:57:24;;;;;;;13.43;5.30;;;14.50;99.90;;;;;;5078522;28;20028;-61
2023/07/05 00:59:55;;;;;;;11.43;5.05;;;14.60;99.90;;;;;;5079511;28;20054;-61
2023/07/05 01:02:22;;;;;;;9.43;4.68;;;14.50;99.90;;;;;;5079286;28;20053;-60
2023/07/05 01:04:48;;;;;;;11.07;5.18;;;14.50;99.90;;;;;;5078755;28;20060;-61
2023/07/05 01:07:14;;;;;;;10.10;4.85;;;14.60;99.90;;;;;;5079253;28;20036;-61
2023/07/05 01:09:40;;;;;;;13.07;5.60;;;14.50;99.90;;;;;;5078049;28;20051;-61
2023/07/05 01:12:21;;;;;;;11.38;5.75;;;14.60;99.90;;;;;;5079623;28;20057;-61
2023/07/05 01:15:27;;;;;;;9.27;5.20;;;14.50;99.90;;;;;;5078765;28;20484;-60
2023/07/05 01:18:13;;;;;;;13.82;4.95;;;14.60;99.90;;;;;;5067114;28;20521;-61
2023/07/05 01:20:41;;;;;;;11.25;4.90;;;14.50;99.90;;;;;;5079518;28;20075;-60
2023/07/05 01:23:32;;;;;;;10.20;5.35;;;14.50;99.90;;;;;;5076812;28;20056;-60
2023/07/05 01:26:16;;;;;;;11.80;6.18;;;14.50;99.90;;;;;;5078609;28;20080;-60
2023/07/05 01:29:01;;;;;;;12.35;5.60;;;14.50;99.90;;;;;;5079239;28;20041;-60
2023/07/05 01:31:45;;;;;;;10.98;5.63;;;14.50;99.90;;;;;;5077375;28;20048;-60
2023/07/05 01:34:38;;;;;;;16.13;5.93;;;14.50;99.90;;;;;;5078501;28;20119;-64
2023/07/05 01:37:08;;;;;;;19.50;6.68;;;14.50;99.90;;;;;;5078551;28;20025;-63
2023/07/05 01:39:34;;;;;;;11.38;6.60;;;14.40;99.90;;;;;;5077415;28;20041;-64
2023/07/05 01:42:01;;;;;;;11.48;6.35;;;14.50;99.90;;;;;;5077692;28;20045;-65
2023/07/05 01:44:27;;;;;;;10.48;5.93;;;14.50;99.90;;;;;;5077531;28;20052;-64
2023/07/05 01:47:14;;;;;;;12.18;6.22;;;14.40;99.90;;;;;;5078519;28;20096;-65
2023/07/05 01:49:56;;;;;;;12.55;7.35;;;14.40;99.90;;;;;;5078873;28;20059;-62
2023/07/05 01:52:33;;;;;;;12.70;6.70;;;14.40;99.90;;;;;;5077565;28;20071;-62
2023/07/05 01:55:24;;;;;;;14.23;7.45;;;14.40;99.90;;;;;;5078736;28;20048;-61
2023/07/05 01:58:08;;;;;;;15.38;7.22;;;14.40;99.90;;;;;;5078238;28;20059;-64
2023/07/05 02:00:37;;;;;;;15.15;7.65;;;14.40;99.90;;;;;;5077887;28;20051;-65
2023/07/05 02:03:08;;;;;;;12.32;6.85;;;14.40;99.90;;;;;;5078616;28;20078;-65
2023/07/05 02:05:35;;;;;;;11.48;7.22;;;14.40;99.90;;;;;;5067221;28;20040;-65
2023/07/05 02:08:01;;;;;;;15.98;7.93;;;14.50;99.90;;;;;;5076264;28;20109;-66
2023/07/05 02:10:27;;;;;;;14.55;7.60;;;14.40;99.90;;;;;;5062093;28;20075;-65
2023/07/05 02:12:54;;;;;;;15.13;8.10;;;14.40;99.90;;;;;;5058051;28;20041;-63
2023/07/05 02:15:20;;;;;;;12.85;8.27;;;14.40;99.90;;;;;;5057977;28;20055;-62
2023/07/05 02:17:46;;;;;;;15.27;8.75;;;14.40;99.90;;;;;;5057272;28;20088;-60
2023/07/05 02:20:12;;;;;;;19.30;8.07;;;14.40;99.90;;;;;;5058709;28;20384;-62
2023/07/05 02:22:38;;;;;;;14.50;8.63;;;14.40;99.90;;;;;;5056847;28;20040;-61
2023/07/05 02:25:04;;;;;;;17.80;8.38;;;14.40;99.90;;;;;;5058185;28;20109;-60
2023/07/05 02:27:30;;;;;;;15.85;8.75;;;14.40;99.90;;;;;;5057685;28;20045;-60
2023/07/05 02:29:56;;;;;;;18.00;8.80;;;14.40;99.90;;;;;;5057935;28;20049;-60
2023/07/05 02:32:23;;;;;;;18.23;8.63;;;14.30;99.90;;;;;;5057803;28;20106;-59
2023/07/05 02:34:48;;;;;;;18.98;9.02;;;14.40;99.90;;;;;;5057062;28;20041;-59
2023/07/05 02:37:14;;;;;;;15.73;9.05;;;14.30;99.90;;;;;;5056696;28;20198;-59
2023/07/05 02:39:41;;;;;;;16.35;9.05;;;14.40;99.90;;;;;;5056541;28;20044;-59
2023/07/05 02:42:07;;;;;;;17.15;8.68;;;14.40;99.90;;;;;;5058171;28;20041;-59
2023/07/05 02:44:33;;;;;;;15.07;9.18;;;14.30;99.90;;;;;;5056748;28;20057;-59
2023/07/05 02:46:58;;;;;;;15.85;9.35;;;14.30;99.90;;;;;;5059773;28;20143;-64
2023/07/05 02:49:24;;;;;;;15.70;9.15;;;14.30;99.90;;;;;;5061416;28;20123;-62
2023/07/05 02:51:50;;;;;;;17.65;9.05;;;14.30;99.90;;;;;;5061442;28;20049;-66
2023/07/05 02:54:16;;;;;;;17.10;9.43;;;14.30;99.90;;;;;;5071832;28;20048;-66
2023/07/05 02:56:41;;;;;;;14.60;9.07;;;14.30;99.90;;;;;;5080983;28;20040;-66
2023/07/05 02:59:07;;;;;;;18.25;9.77;;;14.30;99.90;;;;;;5080403;28;20102;-64
2023/07/05 03:01:33;;;;;;;16.55;9.90;;;14.30;99.90;;;;;;5080879;28;20101;-66
2023/07/05 03:03:58;;;;;;;19.50;9.43;;;14.30;99.90;;;;;;5081648;28;20040;-65
2023/07/05 03:06:24;;;;;;;18.10;10.20;;;14.30;99.90;;;;;;5081580;28;20096;-66
2023/07/05 03:08:50;;;;;;;21.63;10.68;;;14.20;99.90;;;;;;5080491;28;20041;-65
2023/07/05 03:11:16;;;;;;;16.13;10.55;;;14.20;99.90;;;;;;5081793;28;20100;-65
2023/07/05 03:13:41;;;;;;;18.63;11.02;;;14.20;99.90;;;;;;5080564;28;20044;-65
2023/07/05 03:16:08;;;;;;;19.42;11.18;;;14.20;99.90;;;;;;5081768;28;20411;-65
2023/07/05 03:18:34;;;;;;;20.90;11.30;;;14.10;99.90;;;;;;5079949;28;20508;-64
2023/07/05 03:20:59;;;;;;;16.80;11.07;;;14.20;99.90;;;;;;5081778;28;20044;-66
2023/07/05 03:23:25;;;;;;;19.02;11.05;;;14.20;99.90;;;;;;5080814;28;20132;-66
2023/07/05 03:26:02;;;;;;;18.88;11.30;;;14.20;99.90;;;;;;5081084;28;20040;-64
2023/07/05 03:28:30;;;;;;;20.38;11.75;;;14.20;99.90;;;;;;5081146;28;20073;-62
2023/07/05 03:31:25;;;;;;;20.58;12.23;;;14.20;99.90;;;;;;5080445;28;20088;-61
2023/07/05 03:33:52;;;;;;;21.73;12.65;;;14.30;99.90;;;;;;5071977;28;20516;-61
2023/07/05 03:36:19;;;;;;;18.63;12.50;;;14.30;99.90;;;;;;5080789;28;20087;-60
2023/07/05 03:38:48;;;;;;;19.08;12.73;;;14.30;99.90;;;;;;5080317;28;20033;-60
2023/07/05 03:41:18;;;;;;;21.00;12.30;;;14.30;99.90;;;;;;5080699;28;20049;-60
2023/07/05 03:43:47;;;;;;;20.23;12.80;;;14.30;99.90;;;;;;5079927;28;20045;-66
2023/07/05 03:46:14;;;;;;;20.02;11.57;;;14.40;99.90;;;;;;5063066;28;20056;-65
2023/07/05 03:48:42;;;;;;;19.17;11.60;;;14.30;99.90;;;;;;5079986;28;20040;-66
2023/07/05 03:51:13;;;;;;;19.73;12.52;;;14.30;99.90;;;;;;5080694;28;20052;-63
2023/07/05 03:53:39;;;;;;;18.67;11.70;;;14.40;99.90;;;;;;5080499;28;20037;-61
2023/07/05 03:56:07;;;;;;;16.98;11.15;;;14.40;99.90;;;;;;5080091;28;20070;-61
2023/07/05 03:58:34;;;;;;;15.82;10.77;;;14.40;99.90;;;;;;5080706;28;20068;-59
2023/07/05 04:01:08;;;;;;;18.10;10.57;;;14.40;99.90;;;;;;5079432;28;20044;-59
2023/07/05 04:03:34;;;;;;;15.35;10.27;;;14.40;99.90;;;;;;5080472;28;20041;-59
2023/07/05 04:06:02;;;;;;;18.13;10.98;;;14.40;99.90;;;;;;5079827;28;20032;-58
2023/07/05 04:08:28;;;;;;;16.25;10.90;;;14.50;99.90;;;;;;5080060;28;20451;-59
2023/07/05 04:10:54;;;;;;;17.98;11.07;;;14.50;99.90;;;;;;5080710;28;20044;-59
2023/07/05 04:13:20;;;;;;;16.58;10.88;;;14.50;99.90;;;;;;5079632;28;20099;-60
2023/07/05 04:15:45;;;;;;;15.70;10.20;;;14.50;99.90;;;;;;5080953;28;20036;-60
2023/07/05 04:18:11;;;;;;;18.95;10.38;;;14.50;99.90;;;;;;5078803;28;20055;-60
2023/07/05 04:20:37;;;;;;;15.45;9.65;;;14.50;99.90;;;;;;5080707;28;20064;-60
2023/07/05 04:23:04;;;;;;;15.20;9.68;;;14.50;99.90;;;;;;5079215;28;20105;-59
2023/07/05 04:25:30;;;;;;;14.82;10.27;;;14.60;99.90;;;;;;5080282;28;20040;-59
2023/07/05 04:27:55;;;;;;;14.32;9.02;;;14.60;99.90;;;;;;5079694;28;20066;-59
2023/07/05 04:30:21;;;;;;;14.55;10.00;;;14.60;99.90;;;;;;5079391;28;20085;-59
2023/07/05 04:32:47;;;;;;;13.98;9.57;;;14.60;99.90;;;;;;5080064;28;20052;-59
2023/07/05 04:35:13;;;;;;;14.50;10.02;;;14.70;99.90;;;;;;5078896;28;20060;-59
2023/07/05 04:37:38;;;;;;;15.32;9.30;;;14.70;99.90;;;;;;5079232;28;20075;-58
2023/07/05 04:40:04;;;;;;;13.48;8.30;;;14.70;99.90;;;;;;5078759;28;20076;-59
2023/07/05 04:42:30;;;;;;;14.70;9.60;;;14.70;99.90;;;;;;5080331;28;20583;-59
2023/07/05 04:44:56;;;;;;;19.73;10.57;;;14.80;99.90;;;;;;5079637;28;20052;-58
2023/07/05 04:47:21;;;;;;;14.60;9.40;;;14.80;99.90;;;;;;5079408;28;20456;-58
2023/07/05 04:49:47;;;;;;;13.90;8.73;;;14.70;99.90;;;;;;5079787;28;20412;-59
2023/07/05 04:52:13;;;;;;;14.23;7.95;;;14.80;99.90;;;;;;5061070;28;20040;-58
2023/07/05 04:54:38;;;;;;;19.48;9.18;;;14.80;99.90;;;;;;5079682;28;20100;-58
2023/07/05 04:57:05;;;;;;;14.40;8.68;;;14.70;99.90;;;;;;5078315;28;20039;-58
2023/07/05 04:59:30;;;;;;;13.85;8.95;;;14.70;99.90;;;;;;5079511;28;20185;-59
2023/07/05 05:01:56;;;;;;;15.90;8.27;;;14.70;99.90;;;;;;5079054;28;20037;-58
2023/07/05 05:04:21;;;;;;;12.60;8.10;;;14.70;99.90;;;;;;5079160;28;20044;-58
2023/07/05 05:06:47;;;;;;;11.52;6.93;;;14.70;99.90;;;;;;5079658;28;20123;-58
2023/07/05 05:09:13;;;;;;;15.82;7.88;;;14.80;99.90;;;;;;5077883;28;20048;-58
2023/07/05 05:11:39;;;;;;;13.63;6.72;;;14.70;99.90;;;;;;5079829;28;20033;-58
2023/07/05 05:14:04;;;;;;;12.63;6.00;;;14.70;99.90;;;;;;5078201;28;20048;-58
2023/07/05 05:16:30;;;;;;;10.38;6.00;;;14.70;99.90;;;;;;5079722;28;20040;-59
2023/07/05 05:18:56;;;;;;;11.45;5.82;;;14.70;99.90;;;;;;5078472;28;20369;-58
2023/07/05 05:21:21;;;;;;;7.80;4.55;;;14.60;99.90;;;;;;5079258;28;20143;-58
2023/07/05 05:23:47;;;;;;;11.13;4.70;;;14.60;99.90;;;;;;5079253;28;20089;-58
2023/07/05 05:26:13;;;;;;;10.30;4.60;;;14.50;99.90;;;;;;5078437;28;20096;-58
2023/07/05 05:28:38;;;;;;;9.50;4.90;;;14.50;99.90;;;;;;5079627;28;20048;-58
2023/07/05 05:31:09;;;;;;;7.70;3.83;;;14.50;99.90;;;;;;5074717;28;20622;-58
2023/07/05 05:33:36;;;;;;;8.15;4.30;;;14.60;99.90;;;;;;5076339;28;20147;-58
2023/07/05 05:36:02;;;;;;;10.40;4.20;;;14.50;99.90;;;;;;5074885;28;20076;-59
2023/07/05 05:38:28;;;;;;;8.55;4.25;;;14.50;99.90;;;;;;5075408;28;20064;-59
2023/07/05 05:41:01;;;;;;;10.40;4.18;;;14.50;99.90;;;;;;5075648;28;20385;-58
2023/07/05 05:43:26;;;;;;;10.18;4.40;;;14.50;99.90;;;;;;5074261;28;20048;-58
2023/07/05 05:45:52;;;;;;;9.77;4.40;;;14.50;99.90;;;;;;5071750;28;20253;-58
2023/07/05 05:48:18;;;;;;;8.23;4.50;;;14.60;99.90;;;;;;5063985;28;20049;-58
2023/07/05 05:50:43;;;;;;;8.65;4.93;;;14.60;99.90;;;;;;5055107;28;20097;-59
2023/07/05 05:53:10;;;;;;;8.65;4.55;;;14.80;99.90;;;;;;5054878;28;20056;-58
2023/07/05 05:55:37;;;;;;;7.78;4.88;;;14.80;99.90;;;;;;5073878;28;20124;-58
2023/07/05 05:58:05;;;;;;;10.30;4.78;;;14.80;99.90;;;;;;5074511;28;20043;-58
2023/07/05 06:00:31;;;;;;;9.75;5.10;;;14.70;99.90;;;;;;5073674;28;20048;-58
2023/07/05 06:02:57;;;;;;;10.02;5.35;;;14.80;99.90;;;;;;5074764;28;20436;-58
2023/07/05 06:05:23;;;;;;;9.60;5.10;;;14.70;99.90;;;;;;5073301;28;20052;-58
2023/07/05 06:07:48;;;;;;;8.95;4.60;;;14.60;99.90;;;;;;5073400;28;20058;-58
2023/07/05 06:10:14;;;;;;;7.85;4.40;;;14.70;99.90;;;;;;5073264;28;20055;-58
2023/07/05 06:12:43;;;;;;;10.50;4.78;;;14.70;99.90;;;;;;5074394;28;20033;-58
2023/07/05 06:15:13;;;;;;;8.27;4.95;;;14.60;99.90;;;;;;5074195;28;20037;-57
2023/07/05 06:17:39;;;;;;;8.77;4.60;;;14.60;99.90;;;;;;5073828;28;20048;-58
2023/07/05 06:20:06;;;;;;;9.02;4.50;;;14.60;99.90;;;;;;5074229;28;20036;-58
2023/07/05 06:22:36;;;;;;;8.02;4.18;;;14.60;99.90;;;;;;5073313;28;20044;-58
2023/07/05 06:25:02;;;;;;;9.57;4.22;;;14.60;99.90;;;;;;5074235;28;20036;-58
2023/07/05 06:27:28;;;;;;;9.13;4.30;;;14.70;99.90;;;;;;5070828;28;20575;-58
2023/07/05 06:29:53;;;;;;;8.48;4.32;;;14.80;99.90;;;;;;5073767;28;20044;-58
2023/07/05 06:32:19;;;;;;;9.18;4.20;;;14.70;99.90;;;;;;5069996;28;20139;-58
2023/07/05 06:34:45;;;;;;;9.05;4.00;;;14.70;99.90;;;;;;5059604;28;20052;-58
2023/07/05 06:37:11;;;;;;;10.30;4.30;;;14.70;99.90;;;;;;5061034;28;20068;-57
2023/07/05 06:39:37;;;;;;;9.00;4.43;;;14.70;99.90;;;;;;5061192;28;20064;-59
2023/07/05 06:42:03;;;;;;;9.30;3.45;;;14.70;99.90;;;;;;5045496;28;20056;-58
2023/07/05 06:44:29;;;;;;;8.40;4.30;;;14.70;99.90;;;;;;5065024;28;20044;-58
2023/07/05 06:46:55;;;;;;;8.95;4.38;;;14.90;99.90;;;;;;5070362;28;20480;-58
2023/07/05 06:49:21;;;;;;;9.13;3.90;;;15.10;99.90;;;;;;5073605;28;20048;-58
2023/07/05 06:51:46;;;;;;;8.38;3.45;;;15.20;99.90;;;;;;5073275;28;20037;-58
2023/07/05 06:54:12;;;;;;;9.23;4.13;;;15.40;99.90;;;;;;5073754;28;20045;-57
2023/07/05 06:56:38;;;;;;;9.98;3.88;;;15.40;99.90;;;;;;5071890;28;20049;-58
2023/07/05 06:59:04;;;;;;;7.22;3.47;;;15.30;99.90;;;;;;5073407;28;20474;-58
2023/07/05 07:01:29;;;;;;;7.68;3.40;;;15.30;99.90;;;;;;5072236;28;20103;-58
2023/07/05 07:03:55;;;;;;;9.50;3.80;;;15.30;99.90;;;;;;5074061;28;20514;-58
2023/07/05 07:06:21;;;;;;;8.95;3.53;;;15.30;99.90;;;;;;5073104;28;20098;-58
2023/07/05 07:08:47;;;;;;;7.03;3.30;;;15.30;99.90;;;;;;5064588;28;20067;-58
2023/07/05 07:11:13;;;;;;;7.93;3.00;;;15.10;99.90;;;;;;5065228;28;20040;-58
2023/07/05 07:13:40;;;;;;;7.97;3.05;;;15.10;99.90;;;;;;5053070;28;20056;-58
2023/07/05 07:16:08;;;;;;;7.55;3.35;;;15.20;99.90;;;;;;5053765;28;20239;-58
2023/07/05 07:18:36;;;;;;;7.25;3.15;;;15.10;99.90;;;;;;5052298;28;20515;-58
2023/07/05 07:21:02;;;;;;;7.72;3.20;;;15.20;99.90;;;;;;5053645;28;20049;-58
2023/07/05 07:23:28;;;;;;;8.85;3.95;;;15.10;99.90;;;;;;5053543;28;20033;-58
2023/07/05 07:26:07;;;;;;;7.53;3.90;;;15.00;99.90;;;;;;5061569;28;20040;-58
2023/07/05 07:28:33;;;;;;;7.93;3.20;;;15.20;99.90;;;;;;5054246;28;20446;-58
2023/07/05 07:31:12;;;;;;;7.63;3.33;;;15.20;99.90;;;;;;5054122;28;20045;-58
2023/07/05 07:33:38;;;;;;;9.32;3.80;;;15.20;99.90;;;;;;5065763;28;20048;-59
2023/07/05 07:36:24;;;;;;;6.28;2.78;;;15.10;99.90;;;;;;5076350;28;20063;-58
2023/07/05 07:38:51;;;;;;;7.15;2.50;;;15.20;99.90;;;;;;5076580;28;20053;-58
2023/07/05 07:41:19;;;;;;;6.78;2.72;;;15.30;99.90;;;;;;5077042;28;20473;-58
2023/07/05 07:43:46;;;;;;;5.75;2.20;;;15.20;99.90;;;;;;5075589;28;20057;-58
2023/07/05 07:46:14;;;;;;;5.57;2.25;;;15.10;99.90;;;;;;5069423;28;20476;-58
2023/07/05 07:48:42;;;;;;;7.18;2.60;;;15.20;99.90;;;;;;5065340;28;20040;-58
2023/07/05 07:51:09;;;;;;;6.78;2.53;;;15.10;99.90;;;;;;5068488;28;20051;-58
2023/07/05 07:53:35;;;;;;;9.73;3.20;;;14.80;99.90;;;;;;5071066;28;20640;-59
2023/07/05 07:56:12;;;;;;;8.90;3.30;;;14.70;99.90;;;;;;5068649;28;20033;-65
2023/07/05 07:58:38;;;;;;;10.75;3.22;;;14.50;99.90;;;;;;5070292;28;20557;-65
2023/07/05 08:01:23;;;;;;;8.38;3.25;;;14.30;99.90;;;;;;5056317;28;20044;-66
2023/07/05 08:03:49;;;;;;;7.55;2.30;;;13.80;99.90;;;;;;5057305;28;20053;-64
2023/07/05 08:06:16;;;;;;;5.82;1.95;;;13.50;99.90;;;;;;5059320;28;20048;-66
2023/07/05 08:08:42;;;;;;;4.68;1.77;;;13.20;99.90;;;;;;5055962;28;20053;-65
2023/07/05 08:11:08;;;;;;;4.07;1.20;;;13.10;99.90;;;;;;5076774;28;20056;-64
2023/07/05 08:13:35;;;;;;;4.20;1.10;;;12.90;99.90;;;;;;5075795;28;20055;-63
2023/07/05 08:16:01;;;;;;;3.58;1.27;;;12.80;99.90;;;;;;5076865;28;20051;-65
2023/07/05 08:18:28;;;;;;;5.75;1.48;;;12.80;99.90;;;;;;5075023;28;20052;-64
2023/07/05 08:20:54;;;;;;;4.95;1.55;;;12.80;99.90;;;;;;5079687;28;20445;-65
2023/07/05 08:23:20;;;;;;;3.85;1.13;;;12.60;99.90;;;;;;5077390;28;20053;-65
2023/07/05 08:25:54;;;;;;;5.32;1.65;;;12.70;99.90;;;;;;5075608;28;20051;-62
2023/07/05 08:28:20;;;;;;;4.13;1.27;;;12.60;99.90;;;;;;5075141;28;20049;-62
2023/07/05 08:30:55;;;;;;;4.32;1.10;;;12.60;99.90;;;;;;5075191;28;20076;-61
2023/07/05 08:33:29;;;;;;;4.72;1.17;;;12.40;99.90;;;;;;5064899;28;20076;-62
2023/07/05 08:36:14;;;;;;;5.68;1.40;;;12.40;99.90;;;;;;5056364;28;20076;-60
2023/07/05 08:38:43;;;;;;;2.22;0.90;;;12.30;99.90;;;;;;5075682;28;20059;-61
2023/07/05 08:41:20;;;;;;;4.25;1.13;;;12.20;99.90;;;;;;5076442;28;20111;-61
2023/07/05 08:43:56;;;;;;;3.25;1.23;;;12.20;99.90;;;;;;5073364;28;20100;-61
2023/07/05 08:46:24;;;;;;;3.72;1.08;;;12.20;99.90;;;;;;5076086;28;20075;-61
2023/07/05 08:48:55;;;;;;;4.75;1.20;;;12.10;99.90;;;;;;5075202;28;20054;-62
2023/07/05 08:51:21;;;;;;;4.22;1.02;;;12.20;99.90;;;;;;5075979;28;20084;-61
2023/07/05 08:53:53;;;;;;;2.38;0.80;;;12.30;99.90;;;;;;5075808;28;20134;-61
2023/07/05 08:56:27;;;;;;;4.72;1.17;;;12.20;99.90;;;;;;5074955;28;20040;-63
2023/07/05 08:59:01;;;;;;;4.00;1.00;;;12.10;99.90;;;;;;5075812;28;20566;-65
2023/07/05 09:01:30;;;;;;;4.18;0.93;;;12.10;99.90;;;;;;5074825;28;20052;-64
2023/07/05 09:03:56;;;;;;;5.10;1.08;;;12.10;99.90;;;;;;5075609;28;20618;-64
2023/07/05 09:06:28;;;;;;;4.20;1.00;;;12.10;99.90;;;;;;5075148;28;20084;-62
2023/07/05 09:09:44;;;;;;;5.22;1.20;;;12.10;99.90;;;;;;5074696;28;20589;-64
2023/07/05 09:12:34;;;;;;;6.30;1.38;;;12.10;99.90;;;;;;5063130;28;20059;-63
2023/07/05 09:15:23;;;;;;;4.55;1.65;;;12.10;99.90;;;;;;5074097;28;20060;-66
2023/07/05 09:17:55;;;;;;;6.13;1.40;;;12.20;99.90;;;;;;5074497;28;20078;-66
2023/07/05 09:20:39;;;;;;;8.98;2.10;;;12.10;99.90;;;;;;5075446;28;20082;-65
2023/07/05 09:23:36;;;;;;;8.30;2.03;;;12.20;99.90;;;;;;5073000;28;20115;-64
2023/07/05 09:26:14;;;;;;;9.50;2.80;;;12.20;99.90;;;;;;5065847;28;20415;-62
2023/07/05 09:28:49;;;;;;;8.15;1.52;;;12.40;99.90;;;;;;5072822;28;20037;-61
2023/07/05 09:31:16;;;;;;;4.88;1.20;;;12.60;99.90;;;;;;5060402;28;20457;-60
2023/07/05 09:34:12;;;;;;;5.90;1.30;;;12.70;99.90;;;;;;5074671;28;20595;-60
2023/07/05 09:36:40;;;;;;;8.38;1.30;;;12.70;99.90;;;;;;5067013;28;20839;-60
2023/07/05 09:39:21;;;;;;;5.07;1.48;;;12.70;99.90;;;;;;5064520;28;20459;-59
2023/07/05 09:41:50;;;;;;;5.43;1.27;;;12.80;99.90;;;;;;5057705;28;20100;-59
2023/07/05 09:44:18;;;;;;;7.35;2.03;;;13.00;99.90;;;;;;5072244;28;20056;-58
2023/07/05 09:46:44;;;;;;;5.65;1.52;;;13.30;99.90;;;;;;5067251;28;20049;-58
2023/07/05 09:49:16;;;;;;;5.07;1.50;;;13.30;99.90;;;;;;5065711;28;20049;-58
2023/07/05 09:51:44;;;;;;;7.40;1.98;;;13.40;99.90;;;;;;5057035;28;20074;-58
2023/07/05 09:54:29;;;;;;;8.68;2.00;;;13.50;99.90;;;;;;5068353;28;20040;-58
2023/07/05 09:57:06;;;;;;;7.47;2.05;;;13.70;99.90;;;;;;5057357;28;20049;-59
2023/07/05 09:59:36;;;;;;;5.97;1.70;;;13.80;99.90;;;;;;5058584;28;20681;-59
2023/07/05 10:02:12;;;;;;;7.70;2.35;;;13.80;99.90;;;;;;5060801;28;20068;-58
2023/07/05 10:04:53;;;;;;;6.60;1.83;;;13.70;99.90;;;;;;5073438;28;20135;-58
2023/07/05 10:07:24;;;;;;;4.85;1.38;;;13.60;99.90;;;;;;5074688;28;20048;-59
2023/07/05 10:10:10;;;;;;;4.97;1.20;;;13.40;99.90;;;;;;5072787;28;20059;-57
2023/07/05 10:12:41;;;;;;;4.85;1.25;;;13.40;99.90;;;;;;5074436;28;20086;-58
2023/07/05 10:15:21;;;;;;;4.18;0.90;;;13.50;99.90;;;;;;5073950;28;20105;-58
2023/07/05 10:17:48;;;;;;;4.20;0.85;;;13.70;99.90;;;;;;5073168;28;20045;-58
2023/07/05 10:20:38;;;;;;;3.38;1.20;;;13.90;99.90;;;;;;5074080;28;20110;-58
2023/07/05 10:23:14;;;;;;;3.15;0.70;;;13.90;99.90;;;;;;5073185;28;20113;-58
2023/07/05 10:25:41;;;;;;;3.00;0.70;;;14.00;99.90;;;;;;5073749;28;20048;-58
2023/07/05 10:28:12;;;;;;;3.75;0.80;;;14.10;99.90;;;;;;5073744;28;20052;-55
2023/07/05 10:31:24;;;;;;;2.90;0.77;;;14.40;99.90;;;;;;5072537;28;20131;-59
2023/07/05 10:33:49;;;;;;;2.03;1.13;;;14.60;99.90;;;;;;5062349;28;20087;-58
2023/07/05 10:36:18;;;;;;;2.25;0.65;;;14.50;99.90;;;;;;5065105;28;20111;-57
2023/07/05 10:38:50;;;;;;;3.13;0.80;;;14.30;99.90;;;;;;5053400;28;20040;-58
2023/07/05 10:41:33;;;;;;;2.50;0.55;;;14.20;99.90;;;;;;5055079;28;20052;-58
2023/07/05 10:44:04;;;;;;;10.27;5.25;;;14.20;99.90;;;;;;5065028;28;20056;-58
2023/07/05 10:46:30;;;;;;;5.13;0.75;;;14.60;99.90;;;;;;5055758;28;20087;-58
2023/07/05 10:48:57;;;;;;;4.65;0.70;;;14.80;99.90;;;;;;5053403;28;20037;-59
2023/07/05 10:51:26;;;;;;;3.38;0.70;;;14.90;99.90;;;;;;5061332;28;21099;-58
2023/07/05 10:54:29;;;;;;;5.28;1.25;;;15.20;99.90;;;;;;5060819;28;20518;-58
2023/07/05 10:56:56;;;;;;;4.43;1.17;;;15.50;99.90;;;;;;5062033;28;20075;-58
2023/07/05 10:59:37;;;;;;;8.05;1.10;;;15.60;99.90;;;;;;5070228;28;20064;-58
2023/07/05 11:02:34;;;;;;;3.55;0.90;;;15.80;99.90;;;;;;5059061;28;20047;-57
2023/07/05 11:05:00;;;;;;;4.22;0.80;;;15.70;99.90;;;;;;5068419;28;20040;-56
2023/07/05 11:07:29;;;;;;;4.50;0.90;;;15.70;99.90;;;;;;5073558;28;20402;-57
2023/07/05 11:09:57;;;;;;;2.30;0.65;;;15.90;99.90;;;;;;5066859;28;20084;-56
2023/07/05 11:12:27;;;;;;;3.03;0.60;;;16.10;99.90;;;;;;5075227;28;20056;-57
2023/07/05 11:14:54;;;;;;;2.55;0.95;;;15.90;99.90;;;;;;5060583;28;20407;-56
2023/07/05 11:17:37;;;;;;;6.25;1.15;;;15.90;99.90;;;;;;5060665;28;20481;-57
2023/07/05 11:20:35;;;;;;;4.50;1.00;;;15.90;99.90;;;;;;5061072;28;20049;-57
2023/07/05 11:23:00;;;;;;;4.40;0.88;;;16.10;99.90;;;;;;5060725;28;20091;-55
2023/07/05 11:25:54;;;;;;;4.18;1.33;;;16.20;99.90;;;;;;5060952;28;20044;-57
2023/07/05 11:28:37;;;;;;;4.47;1.00;;;16.00;99.90;;;;;;5061574;28;20045;-56
2023/07/05 11:31:05;;;;;;;4.53;1.10;;;16.10;99.90;;;;;;5059876;28;20033;-57
2023/07/05 11:33:30;;;;;;;5.05;1.27;;;16.00;99.90;;;;;;5066445;28;20064;-57
2023/07/05 11:35:58;;;;;;;4.30;1.30;;;16.20;99.90;;;;;;5075388;28;20400;-56
2023/07/05 11:38:36;;;;;;;4.53;1.02;;;16.40;99.90;;;;;;5077855;28;20044;-56
2023/07/05 11:41:10;;;;;;;5.10;1.23;;;16.50;99.80;;;;;;5077247;28;20071;-56
2023/07/05 11:43:56;;;;;;;7.63;1.35;;;16.60;98.50;;;;;;5078237;28;20090;-56
2023/07/05 11:46:48;;;;;;;5.63;1.35;;;16.60;99.20;;;;;;5074074;28;20082;-55
2023/07/05 11:49:19;;;;;;;;;;;16.60;99.90;;;;;;5068259;28;20056;-56
2023/07/05 11:51:47;;;;;;;6.07;1.23;;;16.60;99.90;;;;;;5075207;28;19920;-56
2023/07/05 11:54:16;;;;;;;5.97;1.30;;;16.60;98.50;;;;;;5080515;28;20100;-56
2023/07/05 11:56:44;;;;;;;9.18;1.83;;;16.60;98.20;;;;;;5079170;28;20036;-57
2023/07/05 11:59:14;;;;;;;6.60;1.25;;;16.50;96.40;;;;;;5079414;28;20041;-57
2023/07/05 12:01:42;;;;;;;6.32;1.27;;;16.50;96.00;;;;;;5079865;28;20029;-56
2023/07/05 12:04:15;;;;;;;7.05;1.27;;;16.50;96.20;;;;;;5080186;28;20089;-55
2023/07/05 12:06:43;;;;;;;9.55;1.73;;;16.40;96.70;;;;;;5080329;28;20048;-54
2023/07/05 12:09:23;;;;;;;10.82;1.98;;;16.10;99.90;;;;;;5078981;28;20083;-57
2023/07/05 12:11:55;;;;;;;10.77;2.88;;;15.30;99.90;;;;;;5079930;28;20052;-56
2023/07/05 12:14:21;;;;;;;14.68;2.53;;;14.90;99.90;;;;;;5078935;28;20114;-56
2023/07/05 12:16:47;;;;;;;11.82;2.53;;;14.70;99.90;;;;;;5075535;28;20036;-55
2023/07/05 12:19:30;;;;;;;10.88;2.30;;;14.60;99.90;;;;;;5079105;28;20111;-54
2023/07/05 12:22:09;;;;;;;16.15;3.35;;;14.50;99.90;;;;;;5077417;28;20086;-56
2023/07/05 12:24:40;;;;;;;10.45;1.90;;;14.20;99.90;;;;;;5078089;28;20425;-56
2023/07/05 12:27:11;;;;;;;10.18;2.42;;;14.20;99.90;;;;;;5078562;28;20094;-56
2023/07/05 12:29:39;;;;;;;15.32;2.47;;;13.90;99.90;;;;;;5077444;28;20045;-56
2023/07/05 12:32:14;;;;;;;11.70;2.70;;;13.80;99.90;;;;;;5076664;28;20072;-56
2023/07/05 12:34:40;;;;;;;13.43;3.03;;;13.60;99.90;;;;;;5067642;28;20404;-57
2023/07/05 12:37:08;;;;;;;16.90;3.00;;;13.50;99.90;;;;;;5059883;28;20070;-57
2023/07/05 12:39:33;;;;;;;10.68;2.40;;;13.50;99.90;;;;;;5058771;28;20048;-58
2023/07/05 12:42:08;;;;;;;8.55;2.17;;;13.40;99.90;;;;;;5060125;28;20051;-58
2023/07/05 12:44:35;;;;;;;11.30;2.00;;;13.50;99.90;;;;;;5058893;28;20049;-57
2023/07/05 12:47:31;;;;;;;7.45;1.70;;;13.50;99.90;;;;;;5059209;28;20048;-57
2023/07/05 12:50:03;;;;;;;10.23;1.85;;;13.40;99.90;;;;;;5059506;28;20519;-57
2023/07/05 12:52:29;;;;;;;8.48;1.98;;;13.40;99.90;;;;;;5077822;28;20060;-57
2023/07/05 12:54:55;;;;;;;8.50;2.10;;;13.30;99.90;;;;;;5075843;28;20044;-59
2023/07/05 12:57:27;;;;;;;10.00;2.10;;;13.20;99.90;;;;;;5063354;28;20056;-58